Time;durP1;ratioP1;P1;durP2;ratioP2;P2;SDS_P1;SDS_P2;PMS_P1;PMS_P2;Temp;Humidity;BMP_temperature;BMP_pressure;BME280_temperature;BME280_humidity;BME280_pressure;Samples;Min_cycle;Max_cycle;Signal;HPM_P1;HPM_P2
2022/09/14 00:01:55;;;;;;;;;6.00;4.75;;;;;23.34;65.29;99791.59;5098033;27;45486;-66
2022/09/14 00:04:21;;;;;;;;;6.25;5.50;;;;;23.42;65.44;99793.50;5097938;27;45333;-66
2022/09/14 00:06:47;;;;;;;;;5.50;5.50;;;;;23.42;65.26;99797.00;5098890;27;45627;-66
2022/09/14 00:09:15;;;;;;;;;9.00;6.00;;;;;23.35;64.99;99775.34;5098180;27;45396;-66
2022/09/14 00:11:40;;;;;;;;;3.00;3.00;;;;;23.40;65.34;99784.75;5079922;27;45585;-67
2022/09/14 00:14:06;;;;;;;;;5.75;5.25;;;;;23.37;65.33;99784.09;5080587;27;45486;-66
2022/09/14 00:16:35;;;;;;;;;5.00;5.00;;;;;23.37;65.65;99780.53;5098502;27;45641;-67
2022/09/14 00:19:07;;;;;;;;;5.00;5.00;;;;;23.34;65.69;99768.25;5098627;27;46268;-67
2022/09/14 00:21:35;;;;;;;;;6.00;6.00;;;;;23.31;65.96;99765.06;5098518;27;45484;-67
2022/09/14 00:24:01;;;;;;;;;5.25;5.25;;;;;23.30;65.60;99763.41;5098406;27;45459;-66
2022/09/14 00:26:26;;;;;;;;;6.00;6.00;;;;;23.29;65.83;99765.25;5098513;27;45369;-66
2022/09/14 00:28:54;;;;;;;;;5.75;5.75;;;;;23.25;66.03;99761.16;5098386;27;46283;-66
2022/09/14 00:31:20;;;;;;;;;6.00;6.00;;;;;23.24;66.37;99754.13;5098194;27;45471;-66
2022/09/14 00:33:47;;;;;;;;;5.50;5.50;;;;;23.29;66.44;99759.00;5098700;27;45529;-66
2022/09/14 00:36:32;;;;;;;;;6.00;6.00;;;;;23.25;66.47;99742.38;5098469;27;45526;-66
2022/09/14 00:38:59;;;;;;;;;6.25;5.00;;;;;23.30;66.65;99740.09;5097891;27;46235;-66
2022/09/14 00:41:32;;;;;;;;;5.00;5.00;;;;;23.20;66.73;99720.56;5098452;27;45534;-66
2022/09/14 00:44:02;;;;;;;;;5.50;5.50;;;;;23.27;66.75;99726.16;5080314;27;45439;-66
2022/09/14 00:46:30;;;;;;;;;4.00;4.00;;;;;23.15;67.03;99704.91;5098132;27;45420;-66
2022/09/14 00:48:59;;;;;;;;;6.75;6.00;;;;;23.23;66.52;99717.56;5097670;27;46156;-66
2022/09/14 00:51:26;;;;;;;;;5.50;5.25;;;;;23.20;67.07;99711.66;5098067;27;45477;-65
2022/09/14 00:53:52;;;;;;;;;6.00;6.00;;;;;23.16;66.71;99700.41;5097827;27;45438;-66
2022/09/14 00:56:18;;;;;;;;;5.75;5.75;;;;;23.07;67.07;99693.28;5097858;27;45376;-66
2022/09/14 00:58:47;;;;;;;;;7.00;7.00;;;;;23.12;67.20;99699.88;5098039;27;46337;-66
2022/09/14 01:01:12;;;;;;;;;4.80;4.80;;;;;23.11;67.09;99700.06;5097954;27;45566;-66
2022/09/14 01:03:37;;;;;;;;;5.25;4.25;;;;;23.08;67.11;99693.16;5097670;27;45517;-66
2022/09/14 01:06:19;;;;;;;;;6.75;5.75;;;;;23.07;67.60;99691.44;5098657;27;45448;-66
2022/09/14 01:08:56;;;;;;;;;4.75;4.75;;;;;23.06;67.31;99681.72;5096034;27;45601;-67
2022/09/14 01:11:43;;;;;;;;;5.00;5.00;;;;;23.02;67.35;99682.19;5077224;28;45469;-66
2022/09/14 01:14:32;;;;;;;;;7.00;7.00;;;;;22.99;67.78;99674.47;5077447;28;45359;-67
2022/09/14 01:17:34;;;;;;;;;5.25;5.00;;;;;22.97;67.40;99671.09;5077685;28;45385;-67
2022/09/14 01:20:18;;;;;;;;;5.75;5.75;;;;;22.95;67.23;99660.50;5077431;28;47436;-67
2022/09/14 01:23:03;;;;;;;;;6.25;5.50;;;;;22.93;68.04;99657.13;5077269;28;45391;-67
2022/09/14 01:25:54;;;;;;;;;5.75;4.75;;;;;22.91;68.20;99659.97;5076857;28;45798;-67
2022/09/14 01:28:25;;;;;;;;;4.50;4.50;;;;;22.91;67.89;99653.75;5077177;28;45470;-67
2022/09/14 01:30:54;;;;;;;;;4.50;4.50;;;;;22.92;67.75;99644.75;5077038;28;46304;-67
2022/09/14 01:33:31;;;;;;;;;6.75;5.00;;;;;22.87;68.03;99658.59;5077007;28;45415;-67
2022/09/14 01:36:01;;;;;;;;;6.25;5.75;;;;;22.87;68.29;99663.13;5077282;28;45505;-66
2022/09/14 01:38:34;;;;;;;;;7.00;6.75;;;;;22.89;68.16;99670.03;5076604;28;45584;-67
2022/09/14 01:41:05;;;;;;;;;6.25;6.25;;;;;22.87;68.48;99663.13;5077016;28;45338;-67
2022/09/14 01:43:41;;;;;;;;;6.50;6.50;;;;;22.89;68.50;99667.34;5077361;28;45477;-66
2022/09/14 01:46:15;;;;;;;;;6.00;6.00;;;;;22.87;68.59;99672.00;5077178;28;45517;-66
2022/09/14 01:48:47;;;;;;;;;5.25;4.25;;;;;22.82;68.28;99668.97;5076760;28;45387;-66
2022/09/14 01:51:19;;;;;;;;;5.50;5.50;;;;;22.90;68.55;99692.31;5076773;28;45576;-66
2022/09/14 01:53:51;;;;;;;;;8.25;6.00;;;;;22.77;69.11;99668.59;5076350;28;45484;-66
2022/09/14 01:56:31;;;;;;;;;5.00;5.00;;;;;22.87;68.89;99690.78;5077064;28;45475;-66
2022/09/14 01:59:04;;;;;;;;;5.25;5.25;;;;;22.89;69.06;99677.19;5058595;28;45410;-66
2022/09/14 02:01:48;;;;;;;;;6.00;4.50;;;;;22.82;68.38;99652.88;5076729;28;45564;-67
2022/09/14 02:04:21;;;;;;;;;6.00;5.20;;;;;22.90;68.50;99649.41;5076597;28;45779;-66
2022/09/14 02:06:47;;;;;;;;;5.75;5.75;;;;;22.90;68.70;99665.50;5076243;27;45521;-66
2022/09/14 02:09:18;;;;;;;;;5.50;5.50;;;;;22.89;68.65;99659.31;5080534;27;45664;-66
2022/09/14 02:11:44;;;;;;;;;6.50;5.75;;;;;22.85;68.82;99651.72;5096703;27;46031;-66
2022/09/14 02:14:09;;;;;;;;;8.00;7.00;;;;;22.80;68.83;99652.19;5096724;27;45580;-67
2022/09/14 02:16:35;;;;;;;;;7.00;5.75;;;;;22.75;68.95;99646.44;5096871;27;45501;-66
2022/09/14 02:19:01;;;;;;;;;7.50;5.75;;;;;22.76;69.18;99650.81;5096726;27;45616;-67
2022/09/14 02:21:29;;;;;;;;;5.50;5.50;;;;;22.74;69.05;99652.81;5096264;27;45483;-66
2022/09/14 02:23:57;;;;;;;;;4.50;4.50;;;;;22.70;69.00;99646.06;5096503;27;45406;-67
2022/09/14 02:26:23;;;;;;;;;6.00;6.00;;;;;22.74;69.18;99668.91;5096902;27;45410;-66
2022/09/14 02:28:54;;;;;;;;;6.50;5.50;;;;;22.73;69.23;99669.91;5095722;27;45516;-68
2022/09/14 02:31:43;;;;;;;;;5.00;5.00;;;;;22.70;69.28;99670.19;5094821;27;45454;-68
2022/09/14 02:34:24;;;;;;;;;5.25;5.00;;;;;22.60;69.33;99662.25;5096332;27;45430;-68
2022/09/14 02:37:03;;;;;;;;;6.75;6.00;;;;;22.71;69.25;99674.56;5094607;27;45366;-68
2022/09/14 02:39:47;;;;;;;;;8.75;7.50;;;;;22.70;69.40;99665.69;5075594;28;45490;-68
2022/09/14 02:42:49;;;;;;;;;6.25;4.50;;;;;22.66;69.41;99669.66;5075796;28;45370;-68
2022/09/14 02:45:24;;;;;;;;;6.00;6.00;;;;;22.67;69.11;99678.53;5076669;28;45418;-68
2022/09/14 02:48:01;;;;;;;;;4.00;4.00;;;;;22.64;69.13;99668.97;5076111;28;45365;-65
2022/09/14 02:50:29;;;;;;;;;7.00;5.25;;;;;22.66;69.25;99669.66;5057649;28;45403;-68
2022/09/14 02:52:54;;;;;;;;;8.75;7.50;;;;;22.66;69.32;99666.16;5086023;27;45432;-67
2022/09/14 02:55:24;;;;;;;;;4.75;4.75;;;;;22.64;69.31;99666.28;5095775;27;45632;-67
2022/09/14 02:58:03;;;;;;;;;6.25;6.25;;;;;22.66;69.25;99668.84;5096472;27;45446;-66
2022/09/14 03:00:30;;;;;;;;;5.00;5.00;;;;;22.60;68.68;99656.06;5096288;27;45521;-68
2022/09/14 03:02:56;;;;;;;;;6.00;6.00;;;;;22.70;68.70;99678.22;5095778;27;47509;-68
2022/09/14 03:05:22;;;;;;;;;5.50;5.25;;;;;22.66;68.54;99675.03;5096173;27;45454;-68
2022/09/14 03:07:47;;;;;;;;;6.00;6.00;;;;;22.61;68.83;99674.66;5096169;27;45413;-67
2022/09/14 03:10:13;;;;;;;;;6.75;6.00;;;;;22.63;68.82;99675.34;5081642;27;45553;-67
2022/09/14 03:12:38;;;;;;;;;4.75;4.75;;;;;22.64;68.79;99682.38;5075316;28;45512;-67
2022/09/14 03:15:04;;;;;;;;;6.00;6.00;;;;;22.66;68.78;99669.66;5075605;28;45451;-67
2022/09/14 03:17:30;;;;;;;;;6.00;5.75;;;;;22.66;68.34;99675.03;5075114;28;45451;-67
2022/09/14 03:19:55;;;;;;;;;7.00;7.00;;;;;22.56;68.56;99655.50;5076033;28;45449;-67
2022/09/14 03:22:20;;;;;;;;;5.75;5.75;;;;;22.57;69.07;99651.84;5075316;28;46494;-68
2022/09/14 03:24:46;;;;;;;;;7.50;6.50;;;;;22.64;68.89;99670.81;5075230;28;45489;-66
2022/09/14 03:27:12;;;;;;;;;7.00;7.00;;;;;22.62;68.63;99667.44;5075166;28;45343;-66
2022/09/14 03:29:37;;;;;;;;;5.25;5.25;;;;;22.63;68.51;99671.81;5075213;28;45464;-66
2022/09/14 03:32:02;;;;;;;;;7.00;7.00;;;;;22.61;68.79;99666.59;5075031;28;45472;-66
2022/09/14 03:34:27;;;;;;;;;5.00;5.00;;;;;22.58;68.63;99652.69;5074731;28;45450;-66
2022/09/14 03:36:53;;;;;;;;;5.50;4.75;;;;;22.56;68.43;99639.44;5075235;28;45381;-66
2022/09/14 03:39:18;;;;;;;;;4.75;4.75;;;;;22.64;68.63;99652.06;5075136;28;45359;-66
2022/09/14 03:41:43;;;;;;;;;6.50;5.50;;;;;22.61;68.70;99652.38;5075271;28;46343;-66
2022/09/14 03:44:09;;;;;;;;;5.00;5.00;;;;;22.61;68.45;99652.38;5075538;28;48100;-66
2022/09/14 03:46:34;;;;;;;;;6.25;6.25;;;;;22.62;68.14;99660.28;5075446;28;45433;-66
2022/09/14 03:49:00;;;;;;;;;6.50;5.75;;;;;22.54;68.40;99645.94;5074909;28;45556;-67
2022/09/14 03:51:25;;;;;;;;;5.25;5.25;;;;;22.63;68.57;99667.31;5074884;28;46070;-66
2022/09/14 03:53:51;;;;;;;;;7.50;6.50;;;;;22.52;68.42;99658.66;5074781;28;45471;-67
2022/09/14 03:56:19;;;;;;;;;6.50;6.50;;;;;22.63;68.48;99675.34;5075209;28;45423;-67
2022/09/14 03:58:46;;;;;;;;;5.25;5.25;;;;;22.64;68.34;99670.81;5074851;28;45477;-66
2022/09/14 04:01:15;;;;;;;;;5.75;5.75;;;;;22.61;68.46;99663.94;5074805;28;45992;-67
2022/09/14 04:03:41;;;;;;;;;7.75;4.50;;;;;22.58;68.55;99660.72;5074673;28;45487;-66
2022/09/14 04:06:07;;;;;;;;;6.00;6.00;;;;;22.59;68.32;99655.19;5075062;28;45574;-66
2022/09/14 04:08:34;;;;;;;;;6.00;4.25;;;;;22.57;68.28;99656.34;5074281;28;45441;-66
2022/09/14 04:11:00;;;;;;;;;7.00;7.00;;;;;22.56;68.04;99643.94;5074623;28;45450;-66
2022/09/14 04:13:25;;;;;;;;;7.00;7.00;;;;;22.46;68.04;99628.81;5074740;28;45392;-67
2022/09/14 04:15:58;;;;;;;;;6.25;6.25;;;;;22.55;68.16;99643.13;5074776;28;45458;-67
2022/09/14 04:18:24;;;;;;;;;6.00;6.00;;;;;22.44;67.94;99625.44;5074909;28;45410;-67
2022/09/14 04:20:54;;;;;;;;;5.25;5.25;;;;;22.55;68.04;99640.44;5074776;28;45478;-66
2022/09/14 04:23:19;;;;;;;;;4.50;4.25;;;;;22.51;68.43;99628.31;5074421;28;45526;-66
2022/09/14 04:25:45;;;;;;;;;5.50;5.25;;;;;22.54;68.03;99644.13;5056613;28;45459;-66
2022/09/14 04:28:10;;;;;;;;;6.75;6.75;;;;;22.55;68.00;99635.06;5074804;28;45692;-66
2022/09/14 04:30:35;;;;;;;;;5.00;5.00;;;;;22.55;68.18;99631.56;5058409;28;47019;-66
2022/09/14 04:33:01;;;;;;;;;5.25;5.25;;;;;22.56;67.97;99638.59;5077691;28;45552;-66
2022/09/14 04:35:26;;;;;;;;;6.25;6.25;;;;;22.53;68.13;99639.75;5078330;28;45504;-67
2022/09/14 04:37:51;;;;;;;;;4.50;4.50;;;;;22.53;67.89;99623.66;5078034;28;45604;-66
2022/09/14 04:40:16;;;;;;;;;6.75;6.00;;;;;22.49;67.98;99623.13;5077743;28;50778;-67
2022/09/14 04:42:42;;;;;;;;;6.00;6.00;;;;;22.44;67.61;99629.97;5077781;28;45550;-66
2022/09/14 04:45:07;;;;;;;;;4.75;4.75;;;;;22.51;68.00;99641.72;5078445;28;48498;-66
2022/09/14 04:47:33;;;;;;;;;6.00;5.00;;;;;22.50;67.98;99629.34;5077763;28;45566;-66
2022/09/14 04:49:58;;;;;;;;;5.00;5.00;;;;;22.53;67.88;99636.22;5077314;28;45495;-67
2022/09/14 04:52:23;;;;;;;;;5.00;5.00;;;;;22.53;67.80;99639.75;5077473;28;51595;-66
2022/09/14 04:54:49;;;;;;;;;5.00;5.00;;;;;22.29;67.74;99589.47;5059760;28;45382;-66
2022/09/14 04:57:14;;;;;;;;;5.50;4.00;;;;;22.55;67.60;99620.84;5077299;28;45345;-66
2022/09/14 04:59:39;;;;;;;;;4.00;4.00;;;;;22.55;67.22;99616.31;5077435;28;51980;-66
2022/09/14 05:02:05;;;;;;;;;5.00;5.00;;;;;22.47;67.22;99613.56;5077226;28;45409;-66
2022/09/14 05:04:30;;;;;;;;;4.00;4.00;;;;;22.48;67.50;99612.56;5077593;28;45491;-67
2022/09/14 05:06:55;;;;;;;;;3.50;3.50;;;;;22.50;67.33;99619.44;5077575;28;45644;-66
2022/09/14 05:09:21;;;;;;;;;5.00;5.00;;;;;22.46;67.48;99611.88;5076991;27;46245;-67
2022/09/14 05:11:48;;;;;;;;;6.50;4.50;;;;;22.44;67.35;99604.00;5077040;28;45343;-66
2022/09/14 05:14:14;;;;;;;;;6.25;5.50;;;;;22.42;67.45;99608.66;5077430;28;45411;-66
2022/09/14 05:16:41;;;;;;;;;4.00;4.00;;;;;22.45;67.43;99599.47;5077318;28;45423;-67
2022/09/14 05:19:11;;;;;;;;;6.00;4.75;;;;;22.42;67.72;99586.41;5075680;28;46016;-67
2022/09/14 05:21:37;;;;;;;;;6.50;5.00;;;;;22.34;67.63;99583.66;5076977;28;45449;-66
2022/09/14 05:24:06;;;;;;;;;4.00;4.00;;;;;22.45;67.60;99607.50;5076855;28;45529;-66
2022/09/14 05:26:33;;;;;;;;;4.50;4.50;;;;;22.44;67.55;99597.81;5077469;28;45497;-66
2022/09/14 05:29:00;;;;;;;;;5.00;5.00;;;;;22.48;67.35;99600.00;5073641;28;45666;-66
2022/09/14 05:31:27;;;;;;;;;5.25;5.25;;;;;22.48;67.45;99604.53;5074989;28;45466;-66
2022/09/14 05:33:52;;;;;;;;;5.00;5.00;;;;;22.49;67.70;99600.88;5067902;28;45460;-66
2022/09/14 05:36:18;;;;;;;;;5.00;5.00;;;;;22.48;67.48;99604.53;5076139;28;45362;-66
2022/09/14 05:38:43;;;;;;;;;6.75;6.50;;;;;22.44;67.80;99592.44;5076094;28;45541;-64
2022/09/14 05:41:12;;;;;;;;;5.50;5.50;;;;;22.48;67.37;99599.16;5076406;28;45433;-65
2022/09/14 05:43:38;;;;;;;;;6.00;6.00;;;;;22.42;67.69;99589.06;5077054;28;45487;-65
2022/09/14 05:46:06;;;;;;;;;5.50;5.50;;;;;22.49;67.47;99606.22;5077706;28;45450;-64
2022/09/14 05:48:33;;;;;;;;;8.50;7.00;;;;;22.45;67.54;99619.06;5076233;28;45471;-65
2022/09/14 05:51:00;;;;;;;;;6.50;6.00;;;;;22.46;67.58;99626.13;5058021;28;45351;-65
2022/09/14 05:53:26;;;;;;;;;6.00;6.00;;;;;22.46;67.81;99630.63;5075405;28;45426;-65
2022/09/14 05:55:59;;;;;;;;;7.50;7.50;;;;;22.45;67.96;99627.09;5076503;28;45497;-65
2022/09/14 05:58:25;;;;;;;;;7.50;7.50;;;;;22.47;67.87;99629.66;5075397;28;46368;-65
2022/09/14 06:00:51;;;;;;;;;9.00;8.25;;;;;22.46;67.63;99633.31;5076363;28;45442;-65
2022/09/14 06:03:16;;;;;;;;;8.75;7.50;;;;;22.42;68.08;99635.47;5076187;28;45455;-64
2022/09/14 06:05:41;;;;;;;;;7.25;7.25;;;;;22.41;68.06;99631.09;5076413;28;45401;-65
2022/09/14 06:08:07;;;;;;;;;7.75;6.50;;;;;22.32;68.36;99612.44;5075934;28;45561;-65
2022/09/14 06:10:32;;;;;;;;;7.50;7.00;;;;;22.40;68.36;99615.16;5080079;27;56397;-65
2022/09/14 06:12:59;;;;;;;;;11.25;9.00;;;;;22.34;68.60;99613.94;5096002;27;45420;-65
2022/09/14 06:15:24;;;;;;;;;7.25;7.25;;;;;22.38;68.51;99620.69;5095104;27;45526;-68
2022/09/14 06:17:49;;;;;;;;;6.25;6.25;;;;;22.26;68.44;99597.81;5095236;27;45439;-66
2022/09/14 06:20:17;;;;;;;;;6.50;5.50;;;;;22.26;68.35;99600.50;5096446;27;45400;-66
2022/09/14 06:22:42;;;;;;;;;7.75;6.00;;;;;22.35;68.45;99614.78;5078238;27;45394;-66
2022/09/14 06:25:10;;;;;;;;;6.25;6.25;;;;;22.37;68.54;99626.19;5096321;27;45582;-65
2022/09/14 06:27:35;;;;;;;;;8.75;6.75;;;;;22.33;68.74;99617.63;5096397;27;45481;-66
2022/09/14 06:30:01;;;;;;;;;7.00;7.00;;;;;22.39;68.65;99632.25;5096717;27;45462;-66
2022/09/14 06:32:29;;;;;;;;;6.00;6.00;;;;;22.39;68.74;99634.94;5096469;27;45874;-67
2022/09/14 06:34:54;;;;;;;;;8.00;8.00;;;;;22.38;68.50;99627.88;5095233;27;45365;-66
2022/09/14 06:37:20;;;;;;;;;9.25;8.00;;;;;22.39;68.57;99621.53;5096390;27;45362;-66
2022/09/14 06:39:45;;;;;;;;;7.00;7.00;;;;;22.37;68.58;99620.84;5096501;27;45408;-65
2022/09/14 06:42:11;;;;;;;;;6.50;6.50;;;;;22.31;68.70;99624.16;5096461;27;45354;-65
2022/09/14 06:44:36;;;;;;;;;8.00;8.00;;;;;22.32;68.55;99625.81;5097334;27;45394;-66
2022/09/14 06:47:02;;;;;;;;;6.75;6.75;;;;;22.33;68.89;99628.34;5096506;27;45361;-66
2022/09/14 06:49:27;;;;;;;;;7.75;6.50;;;;;22.32;68.67;99636.53;5096383;27;45408;-66
2022/09/14 06:51:55;;;;;;;;;8.00;6.50;;;;;22.37;68.60;99645.78;5096105;27;45460;-65
2022/09/14 06:54:21;;;;;;;;;9.25;6.25;;;;;22.35;68.65;99639.75;5096143;27;45639;-66
2022/09/14 06:56:46;;;;;;;;;7.75;5.75;;;;;22.38;68.60;99649.31;5096001;27;46412;-66
2022/09/14 06:59:15;;;;;;;;;6.25;6.25;;;;;22.39;68.88;99648.34;5096387;27;45465;-66
2022/09/14 07:01:41;;;;;;;;;7.50;6.25;;;;;22.39;68.70;99653.69;5096087;27;45347;-66
2022/09/14 07:04:07;;;;;;;;;9.00;9.00;;;;;22.40;68.69;99650.00;5096267;27;45465;-66
2022/09/14 07:06:41;;;;;;;;;9.25;8.00;;;;;22.40;68.48;99650.00;5096017;27;45519;-66
2022/09/14 07:09:06;;;;;;;;;6.75;6.75;;;;;22.43;68.88;99644.34;5074029;28;45502;-66
2022/09/14 07:11:33;;;;;;;;;8.25;8.25;;;;;22.41;68.94;99647.19;5075690;28;45389;-66
2022/09/14 07:13:59;;;;;;;;;8.25;7.50;;;;;22.41;69.32;99639.16;5075772;27;45537;-66
2022/09/14 07:16:26;;;;;;;;;10.00;10.00;;;;;22.43;69.10;99628.25;5075339;27;45444;-66
2022/09/14 07:18:52;;;;;;;;;11.00;10.50;;;;;22.47;68.87;99635.84;5075334;27;45446;-65
2022/09/14 07:21:20;;;;;;;;;10.75;10.75;;;;;22.43;68.72;99625.56;5075604;27;45432;-66
2022/09/14 07:23:46;;;;;;;;;7.00;7.00;;;;;22.48;68.76;99639.34;5073983;28;45573;-66
2022/09/14 07:26:27;;;;;;;;;7.75;7.75;;;;;22.46;68.72;99634.16;5075097;27;45394;-66
2022/09/14 07:28:55;;;;;;;;;12.50;12.00;;;;;22.50;68.91;99648.09;5075286;27;45537;-66
2022/09/14 07:31:22;;;;;;;;;10.00;8.75;;;;;22.52;68.71;99646.09;5073944;28;45378;-66
2022/09/14 07:33:54;;;;;;;;;7.00;7.00;;;;;22.46;68.69;99634.16;5075390;27;45562;-66
2022/09/14 07:36:22;;;;;;;;;10.00;8.00;;;;;22.53;68.44;99641.59;5073105;28;45467;-66
2022/09/14 07:38:47;;;;;;;;;9.00;9.00;;;;;22.50;68.68;99651.59;5073315;28;45517;-66
2022/09/14 07:41:13;;;;;;;;;9.25;7.50;;;;;22.47;69.02;99659.13;5075222;27;45307;-67
2022/09/14 07:43:38;;;;;;;;;9.75;9.00;;;;;22.49;68.92;99659.81;5075160;27;45647;-66
2022/09/14 07:46:05;;;;;;;;;8.25;8.25;;;;;22.53;69.03;99660.34;5075268;27;45473;-66
2022/09/14 07:48:32;;;;;;;;;8.50;7.50;;;;;22.54;68.75;99667.38;5075018;27;45356;-66
2022/09/14 07:51:06;;;;;;;;;9.25;9.25;;;;;22.57;68.40;99662.56;5075099;27;45510;-67
2022/09/14 07:53:37;;;;;;;;;9.75;7.50;;;;;22.60;68.73;99672.97;5075052;27;45534;-66
2022/09/14 07:56:04;;;;;;;;;9.00;8.00;;;;;22.65;68.62;99678.72;5074819;27;45370;-66
2022/09/14 07:58:30;;;;;;;;;8.25;7.75;;;;;22.70;68.39;99687.13;5074771;28;45457;-66
2022/09/14 08:01:03;;;;;;;;;10.00;9.00;;;;;22.69;68.29;99690.78;5074874;27;45413;-67
2022/09/14 08:03:30;;;;;;;;;21.67;21.33;;;;;22.63;68.50;99696.78;5075199;27;45586;-67
2022/09/14 08:06:04;;;;;;;;;10.75;10.00;;;;;22.71;68.21;99691.50;5078029;27;45544;-66
2022/09/14 08:08:35;;;;;;;;;11.25;9.50;;;;;22.71;68.05;99685.28;5078119;27;45449;-66
2022/09/14 08:11:04;;;;;;;;;11.25;10.00;;;;;22.71;67.87;99699.53;5078413;27;45513;-66
2022/09/14 08:13:30;;;;;;;;;12.50;12.00;;;;;22.67;68.65;99700.81;5078206;27;45622;-66
2022/09/14 08:15:59;;;;;;;;;10.00;10.00;;;;;22.65;68.79;99704.69;5078146;27;45371;-67
2022/09/14 08:18:25;;;;;;;;;9.25;9.25;;;;;22.63;68.51;99707.50;5078495;27;45444;-66
2022/09/14 08:20:50;;;;;;;;;8.00;8.00;;;;;22.62;68.58;99713.88;5078289;27;45438;-66
2022/09/14 08:23:16;;;;;;;;;7.25;6.75;;;;;22.65;68.28;99734.16;5078443;27;45389;-65
2022/09/14 08:25:41;;;;;;;;;23.33;23.33;;;;;22.64;68.51;99732.47;5077863;28;47311;-65
2022/09/14 08:28:06;;;;;;;;;9.00;9.00;;;;;22.62;68.31;99738.00;5078225;28;45408;-66
2022/09/14 08:30:32;;;;;;;;;12.00;9.75;;;;;22.62;68.24;99729.09;5078173;27;45408;-66
2022/09/14 08:32:57;;;;;;;;;12.75;12.25;;;;;22.61;68.53;99728.25;5076791;28;45447;-66
2022/09/14 08:35:23;;;;;;;;;11.00;11.00;;;;;22.61;68.33;99728.25;5077891;27;45978;-67
2022/09/14 08:37:48;;;;;;;;;9.25;8.25;;;;;22.60;68.71;99728.41;5078155;27;45420;-66
2022/09/14 08:40:16;;;;;;;;;9.00;9.00;;;;;22.60;68.44;99726.56;5077903;27;45401;-66
2022/09/14 08:42:41;;;;;;;;;9.75;8.75;;;;;22.62;68.17;99726.41;5077869;27;45533;-66
2022/09/14 08:45:12;;;;;;;;;9.25;9.00;;;;;22.62;68.49;99721.03;5078414;27;45716;-66
2022/09/14 08:47:38;;;;;;;;;10.50;10.25;;;;;22.57;68.46;99717.97;5076384;28;45477;-67
2022/09/14 08:50:16;;;;;;;;;10.50;10.50;;;;;22.68;68.13;99732.00;5077678;27;45340;-66
2022/09/14 08:52:52;;;;;;;;;14.50;14.50;;;;;22.68;68.13;99737.38;5075581;28;45660;-66
2022/09/14 08:55:47;;;;;;;;;13.00;11.50;;;;;22.71;68.19;99739.75;5075613;28;46419;-66
2022/09/14 08:58:58;;;;;;;;;12.50;11.00;;;;;22.67;67.79;99724.13;5077608;27;45531;-65
2022/09/14 09:01:32;;;;;;;;;11.00;9.50;;;;;22.74;67.75;99727.03;5043339;27;45499;-66
2022/09/14 09:04:19;;;;;;;;;8.00;8.00;;;;;22.77;67.75;99740.13;5077650;28;45358;-66
2022/09/14 09:06:44;;;;;;;;;10.25;8.75;;;;;22.76;67.43;99743.81;5077133;27;45896;-67
2022/09/14 09:09:38;;;;;;;;;7.25;7.25;;;;;22.77;67.86;99753.53;5082066;27;45520;-66
2022/09/14 09:12:04;;;;;;;;;7.25;7.25;;;;;22.78;67.59;99739.97;5098031;27;45449;-66
2022/09/14 09:14:38;;;;;;;;;9.00;9.00;;;;;22.79;67.73;99738.13;5097819;27;45439;-66
2022/09/14 09:17:11;;;;;;;;;11.25;10.50;;;;;22.79;67.91;99740.81;5096029;27;45439;-67
2022/09/14 09:19:46;;;;;;;;;9.75;8.00;;;;;22.89;67.08;99733.50;5097699;27;45422;-66
2022/09/14 09:22:16;;;;;;;;;8.25;8.25;;;;;22.98;66.91;99743.34;5097877;27;45403;-66
2022/09/14 09:24:47;;;;;;;;;9.00;7.75;;;;;22.99;67.30;99744.19;5097703;27;45559;-66
2022/09/14 09:27:15;;;;;;;;;12.00;11.00;;;;;23.04;66.87;99749.94;5097494;27;46099;-66
2022/09/14 09:29:41;;;;;;;;;9.00;7.25;;;;;23.05;66.74;99739.06;5097262;27;45446;-67
2022/09/14 09:32:20;;;;;;;;;10.25;8.75;;;;;23.08;66.72;99735.22;5097576;27;45458;-67
2022/09/14 09:34:46;;;;;;;;;8.25;8.25;;;;;23.18;66.51;99735.97;5097642;27;45396;-66
2022/09/14 09:37:18;;;;;;;;;6.25;6.25;;;;;23.18;66.20;99729.75;5097485;27;46226;-67
2022/09/14 09:39:43;;;;;;;;;11.00;8.00;;;;;23.20;66.04;99727.75;5097135;27;45473;-66
2022/09/14 09:42:19;;;;;;;;;7.50;7.00;;;;;23.27;65.86;99739.56;5097026;27;45453;-66
2022/09/14 09:45:01;;;;;;;;;6.50;6.25;;;;;23.30;66.02;99741.94;5079160;27;45500;-65
2022/09/14 09:47:40;;;;;;;;;9.75;9.00;;;;;23.31;65.49;99736.38;5096831;27;46118;-65
2022/09/14 09:50:12;;;;;;;;;8.75;8.00;;;;;23.38;65.39;99734.75;5096785;27;45358;-66
2022/09/14 09:52:47;;;;;;;;;8.75;7.00;;;;;23.36;64.99;99727.88;5097038;27;45565;-66
2022/09/14 09:55:19;;;;;;;;;6.25;5.75;;;;;23.32;64.86;99708.56;5078686;27;45359;-66
2022/09/14 09:57:45;;;;;;;;;11.25;10.25;;;;;23.55;64.89;99738.38;5078839;27;46062;-66
2022/09/14 10:00:25;;;;;;;;;6.50;6.25;;;;;23.53;64.27;99721.59;5096944;27;45461;-66
2022/09/14 10:02:52;;;;;;;;;8.00;6.50;;;;;23.61;63.60;99726.16;5096464;27;45486;-65
2022/09/14 10:05:27;;;;;;;;;7.25;7.25;;;;;23.64;63.99;99725.00;5095878;27;45441;-66
2022/09/14 10:08:05;;;;;;;;;8.00;8.00;;;;;23.73;64.07;99716.03;5076843;27;45593;-67
2022/09/14 10:10:33;;;;;;;;;7.25;7.25;;;;;23.80;63.46;99720.59;5096639;27;45449;-66
2022/09/14 10:12:59;;;;;;;;;9.00;7.20;;;;;23.81;63.26;99716.06;5096714;27;45414;-66
2022/09/14 10:15:28;;;;;;;;;7.50;7.00;;;;;23.83;62.86;99719.44;5078263;27;45394;-66
2022/09/14 10:18:12;;;;;;;;;7.25;6.00;;;;;23.84;62.95;99707.69;5096603;27;45422;-66
2022/09/14 10:20:43;;;;;;;;;6.60;5.40;;;;;23.69;61.84;99685.09;5078015;27;45415;-66
2022/09/14 10:23:20;;;;;;;;;5.00;5.00;;;;;23.81;61.65;99691.91;5096700;27;45471;-66
2022/09/14 10:25:46;;;;;;;;;5.25;5.25;;;;;23.83;61.29;99695.28;5096574;27;45428;-66
2022/09/14 10:28:31;;;;;;;;;5.75;5.75;;;;;23.79;60.97;99692.06;5095269;27;47186;-67
2022/09/14 10:31:12;;;;;;;;;5.40;5.40;;;;;23.89;60.12;99693.78;5096390;27;45491;-66
2022/09/14 10:33:38;;;;;;;;;4.75;4.00;;;;;23.84;59.59;99683.53;5078043;27;45454;-66
2022/09/14 10:36:12;;;;;;;;;5.25;4.75;;;;;23.93;59.56;99685.22;5096112;27;45383;-66
2022/09/14 10:39:00;;;;;;;;;4.75;4.00;;;;;23.94;59.56;99675.34;5095865;27;45499;-66
2022/09/14 10:41:47;;;;;;;;;4.25;4.25;;;;;24.05;59.25;99674.19;5096031;27;45516;-66
2022/09/14 10:44:44;;;;;;;;;11.25;11.25;;;;;24.06;58.94;99659.75;5096182;27;45445;-66
2022/09/14 10:47:39;;;;;;;;;3.25;3.25;;;;;24.15;56.95;99653.38;5096035;27;45573;-66
2022/09/14 10:50:39;;;;;;;;;2.75;2.00;;;;;24.23;55.42;99653.38;5004449;27;46183;-67
2022/09/14 10:53:36;;;;;;;;;3.00;3.00;;;;;24.28;55.35;99659.09;5091278;27;45481;-66
2022/09/14 10:56:13;;;;;;;;;3.60;3.20;;;;;24.35;56.50;99662.81;5095078;27;45518;-65
2022/09/14 10:59:18;;;;;;;;;3.00;3.00;;;;;24.20;53.74;99626.84;5094281;27;45550;-67
2022/09/14 11:01:46;;;;;;;;;5.25;2.25;;;;;24.41;53.38;99646.03;5093551;27;45513;-66
2022/09/14 11:04:21;;;;;;;;;3.20;3.00;;;;;24.48;54.05;99648.09;5094733;27;45453;-67
2022/09/14 11:07:29;;;;;;;;;8.25;8.00;;;;;24.53;53.99;99643.91;5095270;27;45453;-67
2022/09/14 11:10:28;;;;;;;;;9.25;7.50;;;;;24.55;53.42;99641.03;5025356;28;45513;-66
2022/09/14 11:12:54;;;;;;;;;4.00;3.50;;;;;24.57;52.66;99639.84;5048119;28;46182;-67
2022/09/14 11:15:31;;;;;;;;;4.00;4.00;;;;;24.62;53.13;99642.03;5036743;28;45410;-67
2022/09/14 11:18:09;;;;;;;;;5.00;3.50;;;;;24.71;53.39;99646.41;5059435;28;45435;-68
2022/09/14 11:20:51;;;;;;;;;10.50;10.50;;;;;24.69;53.83;99629.63;5074991;28;45475;-68
2022/09/14 11:23:19;;;;;;;;;39.67;34.33;;;;;24.83;53.51;99636.16;5074711;28;45514;-70
2022/09/14 11:25:56;;;;;;;;;5.00;5.00;;;;;24.93;53.87;99642.16;5074356;28;45452;-66
2022/09/14 11:28:36;;;;;;;;;4.00;4.00;;;;;24.88;53.93;99623.88;5075360;28;45426;-66
2022/09/14 11:31:10;;;;;;;;;5.00;3.00;;;;;25.02;53.13;99640.31;5074932;28;45629;-66
2022/09/14 11:33:47;;;;;;;;;2.40;2.40;;;;;25.05;53.29;99643.50;5074462;28;46106;-66
2022/09/14 11:36:21;;;;;;;;;2.60;2.60;;;;;25.07;51.17;99649.56;5075027;28;45473;-65
2022/09/14 11:38:53;;;;;;;;;2.00;2.00;;;;;24.98;51.25;99628.22;5076086;28;45484;-66
2022/09/14 11:41:25;;;;;;;;;2.75;2.75;;;;;25.09;50.93;99644.84;5078903;28;45545;-66
2022/09/14 11:43:59;;;;;;;;;3.00;3.00;;;;;25.15;51.15;99659.50;5078680;28;46173;-65
2022/09/14 11:46:29;;;;;;;;;2.20;2.20;;;;;25.19;51.22;99651.91;5078114;28;45588;-66
2022/09/14 11:49:39;;;;;;;;;4.60;3.00;;;;;25.18;51.77;99656.47;5078459;28;45426;-66